New River MCAS /H/ /Mccutcheon Fld/ Airport
KNCA : rendu visible

Aérodrome :











RETROUVEZ-NOUS SUR...

 
LOGIN :

S'inscrire | Disclaimer

   EN    FR    IT 

 









Légende :    VFR   VFR Marginal   IFR   IFR Intensif   IFR Très Intensif
Visi : 
Plafond : 
>= 8 km
>= 3000ft
5 à 8 km
1000 à 3000 ft
1500m à 5 km
500 à 1000 ft
800 à 1500m
200 à 500 ft
< 800m
< 200 ft
Symboles :   Orages  Brouillard  Fortes neiges  Fortes précipitations  Vent > 20 kt






- Altitude de l'aérodrome : 26 ft


KNCA - New River MCAS /H/ /Mccutcheon Fld/

DERNIER METAR :
  • 132356Z 02005KT 10SM CLR 24/22 A2987 RMK AO2 TSE06B20E21E33 SLP116 60041 T02440217 10306 20222 55005

METARs EXPIRÉS :
  • 132312Z 32008KT 10SM CLR 24/21 A2987 RMK AO2 TSE06 T02440211
  • 132256Z 23009KT 10SM TS SCT090 BKN110 24/21 A2985 RMK AO2 TSE45B50 SLP110 T02390211
  • 132156Z 21004KT 10SM TS BKN095 24/20 A2986 RMK AO2 RAE09 SLP115 P0000 T02390200

TAF TAF KNCA
Valide du 13 à 21h jusqu'au 14 à 21h UTC


1321/1421 16010KT 9999 BKN050 OVC075 QNH2985INS
TEMPO 1321/1323 VRB15G30KT 3200 +TSRA BR BKN025 OVC050
BECMG 1400/1401 22006KT 9999 SCT030 QNH2988INS
FM141000 01006KT 0800 FG OVC002 QNH2990INS
FM141330 01006KT 9999 SCT030 QNH2992INS T25/1410Z T32/1418Z
FIR KZDC / Amérique du Nord



MET'MAP, la Météo Aéronautique d'un coup d'oeil ! - Copyright ORBIFLY Décembre 2007 - Disclaimer

ORBIFLY MET'MAP TEAM :

Programmation & Développement : Alexandra Zaïnal
Sur une idée originale de : Baudouin d'Aumeries
Assistance à la programmation : Marc-Olivier Méhu
Soutien technique & logistique : Manuel Goepfert

Contact : metmap@orbifly.com




SOURCES & CREDITS :

   NOAA       Earth
Advisory